createdAt,value
2023-05-07T00:00:15.075Z,0.00
2023-05-07T00:01:15.278Z,0.00
2023-05-07T00:02:15.035Z,0.00
2023-05-07T00:03:15.232Z,0.00
2023-05-07T00:04:15.168Z,0.00
2023-05-07T00:05:16.238Z,0.00
2023-05-07T00:06:15.003Z,0.00
2023-05-07T00:07:14.999Z,0.00
2023-05-07T00:08:15.009Z,0.00
2023-05-07T00:09:14.977Z,0.00
2023-05-07T00:10:14.970Z,0.00
2023-05-07T00:11:14.955Z,0.00
2023-05-07T00:12:14.987Z,0.00
2023-05-07T00:13:15.011Z,0.00
2023-05-07T00:14:14.942Z,0.00
2023-05-07T00:15:14.935Z,0.00
2023-05-07T00:16:14.953Z,0.00
2023-05-07T00:17:14.947Z,0.00
2023-05-07T00:18:14.914Z,0.00
2023-05-07T00:19:14.908Z,0.00
2023-05-07T00:20:14.904Z,0.00
2023-05-07T00:21:15.032Z,0.00
2023-05-07T00:22:14.921Z,0.00
2023-05-07T00:23:14.871Z,0.00
2023-05-07T00:24:14.864Z,0.00
2023-05-07T00:25:14.856Z,0.00
2023-05-07T00:26:14.850Z,0.00
2023-05-07T00:27:14.863Z,0.00
2023-05-07T00:28:14.830Z,0.00
2023-05-07T00:29:14.821Z,0.00
2023-05-07T00:30:14.816Z,0.00
2023-05-07T00:31:14.843Z,0.00
2023-05-07T00:32:14.863Z,0.00
2023-05-07T00:33:14.811Z,0.00
2023-05-07T00:34:14.788Z,0.00
2023-05-07T00:35:14.776Z,0.00
2023-05-07T00:36:14.802Z,0.00
2023-05-07T00:37:14.811Z,0.00
2023-05-07T00:38:14.755Z,0.00
2023-05-07T00:39:14.762Z,0.00
2023-05-07T00:40:14.738Z,0.00
2023-05-07T00:41:14.767Z,0.00
2023-05-07T00:42:14.727Z,0.00
2023-05-07T00:43:14.717Z,0.00
2023-05-07T00:44:14.713Z,0.00
2023-05-07T00:45:14.732Z,0.00
2023-05-07T00:46:14.749Z,0.00
2023-05-07T00:47:14.685Z,0.00
2023-05-07T00:48:15.259Z,0.00
2023-05-07T00:49:14.670Z,0.00
2023-05-07T00:50:14.782Z,0.00
2023-05-07T00:51:14.655Z,0.00
2023-05-07T00:52:14.658Z,0.00
2023-05-07T00:53:14.702Z,0.00
2023-05-07T00:54:14.629Z,0.00
2023-05-07T00:55:14.645Z,0.00
2023-05-07T00:56:14.619Z,0.00
2023-05-07T00:57:14.637Z,0.00
2023-05-07T00:58:14.596Z,0.00
2023-05-07T00:59:14.621Z,0.00
2023-05-07T01:00:14.929Z,0.00
2023-05-07T01:01:14.588Z,0.00
2023-05-07T01:02:14.557Z,0.00
2023-05-07T01:03:14.555Z,0.00
2023-05-07T01:04:14.653Z,0.00
2023-05-07T01:05:14.566Z,0.00
2023-05-07T01:06:14.567Z,0.00
2023-05-07T01:07:14.533Z,0.00
2023-05-07T01:08:14.524Z,0.00
2023-05-07T01:09:14.593Z,0.00
2023-05-07T01:10:14.680Z,0.00
2023-05-07T01:11:14.495Z,0.00
2023-05-07T01:12:14.492Z,0.00
2023-05-07T01:13:14.521Z,0.00
2023-05-07T01:14:14.504Z,0.00
2023-05-07T01:15:14.470Z,0.00
2023-05-07T01:16:14.461Z,0.00
2023-05-07T01:17:14.562Z,0.00
2023-05-07T01:18:14.456Z,0.00
2023-05-07T01:19:14.465Z,0.00
2023-05-07T01:20:14.653Z,0.00
2023-05-07T01:21:14.417Z,0.00
2023-05-07T01:22:14.415Z,0.00
2023-05-07T01:23:14.440Z,0.00
2023-05-07T01:24:14.443Z,0.00
2023-05-07T01:25:14.449Z,0.00
2023-05-07T01:26:14.385Z,0.00
2023-05-07T01:27:14.371Z,0.00
2023-05-07T01:28:14.407Z,0.00
2023-05-07T01:29:14.360Z,0.00
2023-05-07T01:30:14.473Z,0.00
2023-05-07T01:31:14.376Z,0.00
2023-05-07T01:32:14.344Z,0.00
2023-05-07T01:33:14.359Z,0.00
2023-05-07T01:34:14.315Z,0.00
2023-05-07T01:35:14.310Z,0.00
2023-05-07T01:36:14.328Z,0.00
2023-05-07T01:37:14.296Z,0.00
2023-05-07T01:38:14.321Z,0.00
2023-05-07T01:39:14.288Z,0.00
2023-05-07T01:40:14.276Z,0.00
2023-05-07T01:41:14.375Z,0.00
2023-05-07T01:42:14.274Z,0.00
2023-05-07T01:43:14.274Z,0.00
2023-05-07T01:44:14.246Z,0.00
2023-05-07T01:45:14.233Z,0.00
2023-05-07T01:46:14.280Z,0.00
2023-05-07T01:47:14.256Z,0.00
2023-05-07T01:48:14.205Z,0.00
2023-05-07T01:49:14.205Z,0.00
2023-05-07T01:50:14.360Z,0.00
2023-05-07T01:51:14.191Z,0.00
2023-05-07T01:52:14.204Z,0.00
2023-05-07T01:53:14.169Z,0.00
2023-05-07T01:54:14.169Z,0.00
2023-05-07T01:55:14.153Z,0.00
2023-05-07T01:56:14.145Z,0.00
2023-05-07T01:57:14.159Z,0.00
2023-05-07T01:58:14.132Z,0.00
2023-05-07T01:59:14.119Z,0.00
2023-05-07T02:00:14.138Z,0.00
2023-05-07T02:01:14.192Z,0.00
2023-05-07T02:02:14.179Z,0.00
2023-05-07T02:03:14.176Z,0.00
2023-05-07T02:04:14.242Z,0.00
2023-05-07T02:05:14.074Z,0.00
2023-05-07T02:06:14.106Z,0.00
2023-05-07T02:07:14.063Z,0.00
2023-05-07T02:08:14.057Z,0.00
2023-05-07T02:09:14.047Z,0.00
2023-05-07T02:10:14.078Z,0.00
2023-05-07T02:11:14.051Z,0.00
2023-05-07T02:12:14.043Z,0.00
2023-05-07T02:13:14.122Z,0.00
2023-05-07T02:14:14.010Z,0.00
2023-05-07T02:15:14.031Z,0.00
2023-05-07T02:16:14.023Z,0.00
2023-05-07T02:17:13.984Z,0.00
2023-05-07T02:18:13.984Z,0.00
2023-05-07T02:19:13.984Z,0.00
2023-05-07T02:20:13.990Z,0.00
2023-05-07T02:21:13.955Z,0.00
2023-05-07T02:22:13.952Z,0.00
2023-05-07T02:23:13.940Z,0.00
2023-05-07T02:24:13.933Z,0.00
2023-05-07T02:25:13.951Z,0.00
2023-05-07T02:26:13.915Z,0.00
2023-05-07T02:27:13.911Z,0.00
2023-05-07T02:28:13.902Z,0.00
2023-05-07T02:29:14.099Z,0.00
2023-05-07T02:30:13.904Z,0.00
2023-05-07T02:31:14.878Z,0.00
2023-05-07T02:32:13.934Z,0.00
2023-05-07T02:33:13.892Z,0.00
2023-05-07T02:34:13.908Z,0.00
2023-05-07T02:35:13.845Z,0.00
2023-05-07T02:36:13.844Z,0.00
2023-05-07T02:37:13.835Z,0.00
2023-05-07T02:38:13.820Z,0.00
2023-05-07T02:39:13.833Z,0.00
2023-05-07T02:40:13.955Z,0.00
2023-05-07T02:41:13.800Z,0.00
2023-05-07T02:42:13.794Z,0.00
2023-05-07T02:43:13.791Z,0.00
2023-05-07T02:44:13.806Z,0.00
2023-05-07T02:45:13.874Z,0.00
2023-05-07T02:46:13.805Z,0.00
2023-05-07T02:47:13.752Z,0.00
2023-05-07T02:48:13.769Z,0.00
2023-05-07T02:49:13.763Z,0.00
2023-05-07T02:50:13.999Z,0.00
2023-05-07T02:51:13.742Z,0.00
2023-05-07T02:52:13.715Z,0.00
2023-05-07T02:53:13.735Z,0.00
2023-05-07T02:54:13.708Z,0.00
2023-05-07T02:55:13.696Z,0.00
2023-05-07T02:56:13.690Z,0.00
2023-05-07T02:57:13.678Z,0.00
2023-05-07T02:58:13.690Z,0.00
2023-05-07T02:59:13.665Z,0.00
2023-05-07T03:00:13.652Z,0.00
2023-05-07T03:01:13.716Z,0.00
2023-05-07T03:02:13.670Z,0.00
2023-05-07T03:03:13.688Z,0.00
2023-05-07T03:04:13.672Z,0.00
2023-05-07T03:05:13.650Z,0.00
2023-05-07T03:06:13.606Z,0.00
2023-05-07T03:07:13.637Z,0.00
2023-05-07T03:08:13.589Z,0.00
2023-05-07T03:09:13.583Z,0.00
2023-05-07T03:10:13.651Z,0.00
2023-05-07T03:11:13.570Z,0.00
2023-05-07T03:12:13.584Z,0.00
2023-05-07T03:13:13.629Z,0.00
2023-05-07T03:14:13.552Z,0.00
2023-05-07T03:15:13.608Z,0.00
2023-05-07T03:16:13.579Z,0.00
2023-05-07T03:17:13.599Z,0.00
2023-05-07T03:18:13.642Z,0.00
2023-05-07T03:19:13.509Z,0.00
2023-05-07T03:20:13.702Z,0.00
2023-05-07T03:21:13.512Z,0.00
2023-05-07T03:22:13.500Z,4.00
2023-05-07T03:23:13.461Z,4.00
2023-05-07T03:24:14.457Z,0.00
2023-05-07T03:25:13.454Z,0.00
2023-05-07T03:26:13.476Z,4.00
2023-05-07T03:27:13.459Z,4.00
2023-05-07T03:28:13.437Z,0.00
2023-05-07T03:29:13.438Z,4.00
2023-05-07T03:30:13.484Z,8.00
2023-05-07T03:31:13.481Z,8.00
2023-05-07T03:32:13.400Z,8.00
2023-05-07T03:33:13.449Z,8.00
2023-05-07T03:34:13.392Z,8.00
2023-05-07T03:35:13.425Z,12.00
2023-05-07T03:36:13.393Z,16.00
2023-05-07T03:37:13.375Z,16.00
2023-05-07T03:38:13.356Z,16.00
2023-05-07T03:39:13.349Z,20.00
2023-05-07T03:40:13.631Z,20.00
2023-05-07T03:41:13.445Z,28.00
2023-05-07T03:42:13.322Z,32.00
2023-05-07T03:43:13.323Z,32.00
2023-05-07T03:44:13.312Z,36.00
2023-05-07T03:45:13.334Z,36.00
2023-05-07T03:46:13.311Z,44.00
2023-05-07T03:47:13.286Z,48.00
2023-05-07T03:48:13.328Z,52.00
2023-05-07T03:49:13.316Z,52.00
2023-05-07T03:50:13.501Z,60.00
2023-05-07T03:51:13.254Z,68.00
2023-05-07T03:52:13.244Z,68.00
2023-05-07T03:53:13.238Z,76.00
2023-05-07T03:54:13.259Z,80.00
2023-05-07T03:55:13.240Z,88.00
2023-05-07T03:56:13.228Z,96.00
2023-05-07T03:57:13.212Z,100.00
2023-05-07T03:58:13.210Z,104.00
2023-05-07T03:59:13.230Z,100.00
2023-05-07T04:00:13.514Z,104.00
2023-05-07T04:01:13.194Z,112.00
2023-05-07T04:02:13.225Z,120.00
2023-05-07T04:03:13.220Z,116.00
2023-05-07T04:04:13.340Z,120.00
2023-05-07T04:05:13.204Z,124.00
2023-05-07T04:06:13.140Z,128.00
2023-05-07T04:07:13.144Z,140.00
2023-05-07T04:08:13.158Z,148.00
2023-05-07T04:09:13.166Z,160.00
2023-05-07T04:10:13.311Z,168.00
2023-05-07T04:11:13.101Z,172.00
2023-05-07T04:12:13.087Z,176.00
2023-05-07T04:13:13.149Z,176.00
2023-05-07T04:14:13.085Z,200.00
2023-05-07T04:15:13.090Z,200.00
2023-05-07T04:16:13.093Z,204.00
2023-05-07T04:17:14.067Z,192.00
2023-05-07T04:18:13.073Z,204.00
2023-05-07T04:19:13.038Z,228.00
2023-05-07T04:20:13.268Z,220.00
2023-05-07T04:21:13.072Z,208.00
2023-05-07T04:22:13.080Z,200.00
2023-05-07T04:23:13.030Z,216.00
2023-05-07T04:24:13.002Z,236.00
2023-05-07T04:25:13.006Z,256.00
2023-05-07T04:26:12.983Z,280.00
2023-05-07T04:27:13.036Z,280.00
2023-05-07T04:28:12.979Z,280.00
2023-05-07T04:29:12.955Z,296.00
2023-05-07T04:30:13.158Z,296.00
2023-05-07T04:31:12.954Z,316.00
2023-05-07T04:32:12.991Z,328.00
2023-05-07T04:33:13.091Z,364.00
2023-05-07T04:34:12.925Z,388.00
2023-05-07T04:35:12.912Z,412.00
2023-05-07T04:36:12.935Z,396.00
2023-05-07T04:37:12.978Z,416.00
2023-05-07T04:38:12.897Z,456.00
2023-05-07T04:39:12.885Z,448.00
2023-05-07T04:40:13.108Z,464.00
2023-05-07T04:41:12.897Z,480.00
2023-05-07T04:42:12.859Z,520.00
2023-05-07T04:43:12.850Z,552.00
2023-05-07T04:44:12.855Z,552.00
2023-05-07T04:45:12.840Z,580.00
2023-05-07T04:46:12.978Z,596.00
2023-05-07T04:47:12.820Z,600.00
2023-05-07T04:48:12.812Z,604.00
2023-05-07T04:49:12.800Z,620.00
2023-05-07T04:50:13.145Z,600.00
2023-05-07T04:51:12.812Z,624.00
2023-05-07T04:52:12.781Z,648.00
2023-05-07T04:53:12.772Z,688.00
2023-05-07T04:54:12.762Z,716.00
2023-05-07T04:55:12.779Z,724.00
2023-05-07T04:56:12.769Z,752.00
2023-05-07T04:57:12.761Z,764.00
2023-05-07T04:58:12.720Z,796.00
2023-05-07T04:59:12.733Z,764.00
2023-05-07T05:00:12.995Z,696.00
2023-05-07T05:01:12.745Z,680.00
2023-05-07T05:02:12.706Z,708.00
2023-05-07T05:03:12.787Z,720.00
2023-05-07T05:04:12.723Z,784.00
2023-05-07T05:05:12.701Z,744.00
2023-05-07T05:06:12.669Z,804.00
2023-05-07T05:07:12.661Z,852.00
2023-05-07T05:08:12.660Z,836.00
2023-05-07T05:09:12.731Z,860.00
2023-05-07T05:10:12.836Z,924.00
2023-05-07T05:11:12.629Z,1020.00
2023-05-07T05:12:12.629Z,1120.00
2023-05-07T05:13:12.684Z,1192.00
2023-05-07T05:14:12.639Z,1280.00
2023-05-07T05:15:12.614Z,1304.00
2023-05-07T05:16:12.612Z,1472.00
2023-05-07T05:17:12.612Z,1600.00
2023-05-07T05:18:12.612Z,1556.00
2023-05-07T05:19:12.610Z,1872.00
2023-05-07T05:20:12.736Z,1844.00
2023-05-07T05:21:12.557Z,2080.00
2023-05-07T05:22:12.556Z,2208.00
2023-05-07T05:23:12.580Z,2416.00
2023-05-07T05:24:12.550Z,2180.00
2023-05-07T05:25:12.608Z,2428.00
2023-05-07T05:26:12.513Z,2048.00
2023-05-07T05:27:12.518Z,1996.00
2023-05-07T05:28:12.538Z,2028.00
2023-05-07T05:29:12.497Z,1924.00
2023-05-07T05:30:12.674Z,1860.00
2023-05-07T05:31:12.538Z,1776.00
2023-05-07T05:32:12.500Z,1976.00
2023-05-07T05:33:12.541Z,1780.00
2023-05-07T05:34:12.462Z,1736.00
2023-05-07T05:35:12.460Z,1688.00
2023-05-07T05:36:12.445Z,1800.00
2023-05-07T05:37:12.459Z,1740.00
2023-05-07T05:38:12.441Z,1724.00
2023-05-07T05:39:12.424Z,1688.00
2023-05-07T05:40:12.534Z,1820.00
2023-05-07T05:41:12.398Z,1968.00
2023-05-07T05:42:12.417Z,1960.00
2023-05-07T05:43:12.390Z,2292.00
2023-05-07T05:44:12.379Z,2568.00
2023-05-07T05:45:12.385Z,2708.00
2023-05-07T05:46:12.405Z,2608.00
2023-05-07T05:47:12.382Z,2660.00
2023-05-07T05:48:12.413Z,2596.00
2023-05-07T05:49:12.347Z,2704.00
2023-05-07T05:50:12.505Z,2684.00
2023-05-07T05:51:12.364Z,2212.00
2023-05-07T05:52:12.321Z,2248.00
2023-05-07T05:53:12.313Z,2208.00
2023-05-07T05:54:12.367Z,2256.00
2023-05-07T05:55:12.307Z,2200.00
2023-05-07T05:56:12.323Z,2340.00
2023-05-07T05:57:12.282Z,2436.00
2023-05-07T05:58:12.274Z,2460.00
2023-05-07T05:59:12.315Z,2504.00
2023-05-07T06:00:12.513Z,2616.00
2023-05-07T06:01:12.275Z,2792.00
2023-05-07T06:02:12.296Z,2776.00
2023-05-07T06:03:14.312Z,2860.00
2023-05-07T06:04:12.232Z,3072.00
2023-05-07T06:05:12.332Z,2952.00
2023-05-07T06:06:12.207Z,3384.00
2023-05-07T06:07:12.212Z,3408.00
2023-05-07T06:08:12.203Z,3256.00
2023-05-07T06:09:13.218Z,3220.00
2023-05-07T06:10:12.372Z,3200.00
2023-05-07T06:11:12.169Z,3428.00
2023-05-07T06:12:12.162Z,3200.00
2023-05-07T06:13:12.208Z,3576.00
2023-05-07T06:14:12.149Z,3328.00
2023-05-07T06:15:12.179Z,3580.00
2023-05-07T06:16:12.146Z,3432.00
2023-05-07T06:17:12.132Z,3380.00
2023-05-07T06:18:12.151Z,3404.00
2023-05-07T06:19:12.140Z,3928.00
2023-05-07T06:20:12.333Z,3996.00
2023-05-07T06:21:12.087Z,4040.00
2023-05-07T06:22:12.073Z,4296.00
2023-05-07T06:23:13.093Z,4172.00
2023-05-07T06:24:12.103Z,4288.00
2023-05-07T06:25:12.064Z,4032.00
2023-05-07T06:26:12.074Z,4064.00
2023-05-07T06:27:12.049Z,4208.00
2023-05-07T06:28:12.035Z,4720.00
2023-05-07T06:29:12.251Z,4284.00
2023-05-07T06:30:12.271Z,4184.00
2023-05-07T06:31:12.021Z,3976.00
2023-05-07T06:32:12.145Z,4452.00
2023-05-07T06:33:12.098Z,4168.00
2023-05-07T06:34:12.020Z,4068.00
2023-05-07T06:35:11.983Z,4168.00
2023-05-07T06:36:11.991Z,4260.00
2023-05-07T06:37:11.979Z,4160.00
2023-05-07T06:38:11.981Z,4064.00
2023-05-07T06:39:11.950Z,3680.00
2023-05-07T06:40:12.111Z,3664.00
2023-05-07T06:41:11.957Z,3680.00
2023-05-07T06:42:11.934Z,3728.00
2023-05-07T06:43:11.950Z,3684.00
2023-05-07T06:44:11.922Z,3996.00
2023-05-07T06:45:11.920Z,4416.00
2023-05-07T06:46:11.937Z,4464.00
2023-05-07T06:47:13.805Z,4268.00
2023-05-07T06:48:11.919Z,4284.00
2023-05-07T06:49:11.868Z,4348.00
2023-05-07T06:50:12.941Z,4732.00
2023-05-07T06:51:11.860Z,5120.00
2023-05-07T06:52:11.881Z,4976.00
2023-05-07T06:53:11.847Z,4584.00
2023-05-07T06:54:11.834Z,4376.00
2023-05-07T06:55:11.831Z,4720.00
2023-05-07T06:56:11.823Z,4644.00
2023-05-07T06:57:11.853Z,4612.00
2023-05-07T06:58:11.816Z,4592.00
2023-05-07T06:59:11.813Z,4672.00
2023-05-07T07:00:12.012Z,4748.00
2023-05-07T07:01:11.833Z,4700.00
2023-05-07T07:02:11.803Z,4736.00
2023-05-07T07:03:11.777Z,4756.00
2023-05-07T07:04:11.784Z,4932.00
2023-05-07T07:05:11.809Z,4820.00
2023-05-07T07:06:11.768Z,4496.00
2023-05-07T07:07:11.757Z,4344.00
2023-05-07T07:08:11.735Z,4564.00
2023-05-07T07:09:11.716Z,4780.00
2023-05-07T07:10:11.908Z,4660.00
2023-05-07T07:11:11.742Z,4816.00
2023-05-07T07:12:12.697Z,4912.00
2023-05-07T07:13:11.719Z,5260.00
2023-05-07T07:14:11.676Z,5352.00
2023-05-07T07:15:11.679Z,5488.00
2023-05-07T07:16:11.716Z,5468.00
2023-05-07T07:17:11.707Z,5112.00
2023-05-07T07:18:11.672Z,5372.00
2023-05-07T07:19:11.651Z,5652.00
2023-05-07T07:20:12.219Z,6048.00
2023-05-07T07:21:12.649Z,6356.00
2023-05-07T07:22:11.614Z,6208.00
2023-05-07T07:23:11.611Z,6532.00
2023-05-07T07:24:11.600Z,7160.00
2023-05-07T07:25:11.609Z,7208.00
2023-05-07T07:26:12.628Z,7640.00
2023-05-07T07:27:11.585Z,7484.00
2023-05-07T07:28:11.582Z,7868.00
2023-05-07T07:29:11.558Z,7552.00
2023-05-07T07:30:11.657Z,7656.00
2023-05-07T07:31:11.575Z,7936.00
2023-05-07T07:32:11.543Z,7652.00
2023-05-07T07:33:11.560Z,7704.00
2023-05-07T07:34:11.524Z,7604.00
2023-05-07T07:35:11.540Z,7412.00
2023-05-07T07:36:11.508Z,6656.00
2023-05-07T07:37:11.502Z,6768.00
2023-05-07T07:38:11.491Z,7384.00
2023-05-07T07:39:11.502Z,7856.00
2023-05-07T07:40:11.683Z,7924.00
2023-05-07T07:41:11.478Z,7688.00
2023-05-07T07:42:11.450Z,7424.00
2023-05-07T07:43:11.446Z,7484.00
2023-05-07T07:44:12.633Z,7604.00
2023-05-07T07:45:11.426Z,7832.00
2023-05-07T07:46:11.424Z,8412.00
2023-05-07T07:47:11.463Z,8780.00
2023-05-07T07:48:11.452Z,8644.00
2023-05-07T07:49:11.472Z,9620.00
2023-05-07T07:50:12.735Z,9824.00
2023-05-07T07:51:11.377Z,10064.00
2023-05-07T07:52:11.375Z,10076.00
2023-05-07T07:53:11.359Z,9720.00
2023-05-07T07:54:11.383Z,9396.00
2023-05-07T07:55:11.342Z,9208.00
2023-05-07T07:56:11.350Z,9600.00
2023-05-07T07:57:11.347Z,9820.00
2023-05-07T07:58:11.340Z,9456.00
2023-05-07T07:59:11.342Z,9460.00
2023-05-07T08:00:11.501Z,10324.00
2023-05-07T08:01:11.312Z,10936.00
2023-05-07T08:02:11.433Z,10868.00
2023-05-07T08:03:11.734Z,10952.00
2023-05-07T08:04:11.444Z,11148.00
2023-05-07T08:05:11.348Z,10392.00
2023-05-07T08:06:11.275Z,10252.00
2023-05-07T08:07:11.258Z,10980.00
2023-05-07T08:08:11.281Z,11476.00
2023-05-07T08:09:11.248Z,13208.00
2023-05-07T08:10:11.452Z,14652.00
2023-05-07T08:11:11.238Z,15116.00
2023-05-07T08:12:11.225Z,14288.00
2023-05-07T08:13:11.288Z,12792.00
2023-05-07T08:14:11.222Z,14332.00
2023-05-07T08:15:11.208Z,17280.00
2023-05-07T08:16:11.192Z,22048.00
2023-05-07T08:17:11.294Z,20096.00
2023-05-07T08:18:11.228Z,22016.00
2023-05-07T08:19:11.203Z,21888.00
2023-05-07T08:20:11.285Z,25120.00
2023-05-07T08:21:11.263Z,25024.00
2023-05-07T08:22:11.178Z,23904.00
2023-05-07T08:23:11.225Z,21472.00
2023-05-07T08:24:11.157Z,21376.00
2023-05-07T08:25:11.128Z,20704.00
2023-05-07T08:26:11.123Z,22752.00
2023-05-07T08:27:11.136Z,22240.00
2023-05-07T08:28:11.109Z,21504.00
2023-05-07T08:29:11.113Z,23776.00
2023-05-07T08:30:11.255Z,22368.00
2023-05-07T08:31:11.131Z,20512.00
2023-05-07T08:32:11.104Z,17408.00
2023-05-07T08:33:11.274Z,17056.00
2023-05-07T08:34:11.060Z,19328.00
2023-05-07T08:35:11.046Z,18400.00
2023-05-07T08:36:11.080Z,19168.00
2023-05-07T08:37:11.035Z,21056.00
2023-05-07T08:38:11.051Z,21472.00
2023-05-07T08:39:11.018Z,22080.00
2023-05-07T08:40:13.698Z,23840.00
2023-05-07T08:41:11.028Z,25120.00
2023-05-07T08:42:10.999Z,25536.00
2023-05-07T08:43:10.994Z,23936.00
2023-05-07T08:44:10.981Z,25344.00
2023-05-07T08:45:11.000Z,27200.00
2023-05-07T08:46:10.998Z,30176.00
2023-05-07T08:47:10.950Z,38560.00
2023-05-07T08:48:11.012Z,38528.00
2023-05-07T08:49:10.955Z,36544.00
2023-05-07T08:50:11.151Z,40448.00
2023-05-07T08:51:10.913Z,42560.00
2023-05-07T08:52:10.931Z,41056.00
2023-05-07T08:53:10.958Z,43520.00
2023-05-07T08:54:10.901Z,42656.00
2023-05-07T08:55:11.210Z,43296.00
2023-05-07T08:56:10.897Z,42048.00
2023-05-07T08:57:10.905Z,43296.00
2023-05-07T08:58:10.887Z,42784.00
2023-05-07T08:59:10.892Z,35552.00
2023-05-07T09:00:10.891Z,31360.00
2023-05-07T09:01:10.843Z,38336.00
2023-05-07T09:02:10.906Z,38208.00
2023-05-07T09:03:10.889Z,35040.00
2023-05-07T09:04:10.961Z,31360.00
2023-05-07T09:05:11.071Z,32544.00
2023-05-07T09:06:10.813Z,40224.00
2023-05-07T09:07:10.796Z,41472.00
2023-05-07T09:08:10.784Z,32512.00
2023-05-07T09:09:10.998Z,34336.00
2023-05-07T09:10:10.909Z,36576.00
2023-05-07T09:11:10.761Z,37184.00
2023-05-07T09:12:10.751Z,35680.00
2023-05-07T09:13:10.775Z,34752.00
2023-05-07T09:14:10.772Z,39104.00
2023-05-07T09:15:10.919Z,33056.00
2023-05-07T09:16:10.777Z,32832.00
2023-05-07T09:17:10.723Z,33152.00
2023-05-07T09:18:10.723Z,30432.00
2023-05-07T09:19:10.730Z,27424.00
2023-05-07T09:20:11.364Z,25120.00
2023-05-07T09:21:11.701Z,23520.00
2023-05-07T09:22:10.667Z,24000.00
2023-05-07T09:23:10.710Z,24256.00
2023-05-07T09:24:10.654Z,23328.00
2023-05-07T09:25:11.058Z,22976.00
2023-05-07T09:26:10.648Z,21312.00
2023-05-07T09:27:10.629Z,19968.00
2023-05-07T09:28:10.637Z,19232.00
2023-05-07T09:29:10.610Z,19936.00
2023-05-07T09:30:10.602Z,20512.00
2023-05-07T09:31:10.674Z,21824.00
2023-05-07T09:32:10.646Z,21344.00
2023-05-07T09:33:10.635Z,21440.00
2023-05-07T09:34:10.579Z,22016.00
2023-05-07T09:35:10.733Z,22112.00
2023-05-07T09:36:10.560Z,21856.00
2023-05-07T09:37:10.566Z,21312.00
2023-05-07T09:38:10.539Z,20992.00
2023-05-07T09:39:10.540Z,20448.00
2023-05-07T09:40:10.529Z,19936.00
2023-05-07T09:41:10.633Z,19168.00
2023-05-07T09:42:10.534Z,18560.00
2023-05-07T09:43:10.499Z,18336.00
2023-05-07T09:44:10.504Z,17760.00
2023-05-07T09:45:10.666Z,16568.00
2023-05-07T09:46:10.514Z,16928.00
2023-05-07T09:47:10.499Z,17152.00
2023-05-07T09:48:10.530Z,17312.00
2023-05-07T09:49:11.257Z,17248.00
2023-05-07T09:50:11.472Z,17312.00
2023-05-07T09:51:10.478Z,17376.00
2023-05-07T09:52:10.458Z,17408.00
2023-05-07T09:53:10.427Z,17632.00
2023-05-07T09:54:10.415Z,17664.00
2023-05-07T09:55:10.528Z,17568.00
2023-05-07T09:56:10.424Z,17664.00
2023-05-07T09:57:10.447Z,17760.00
2023-05-07T09:58:10.384Z,17760.00
2023-05-07T09:59:10.384Z,17536.00
2023-05-07T10:00:10.369Z,16960.00
2023-05-07T10:01:10.446Z,16408.00
2023-05-07T10:02:10.349Z,16104.00
2023-05-07T10:03:10.437Z,16100.00
2023-05-07T10:04:10.351Z,15568.00
2023-05-07T10:05:10.579Z,15904.00
2023-05-07T10:06:10.345Z,16116.00
2023-05-07T10:07:10.313Z,16120.00
2023-05-07T10:08:10.308Z,16200.00
2023-05-07T10:09:10.295Z,16108.00
2023-05-07T10:10:10.316Z,16068.00
2023-05-07T10:11:10.301Z,15368.00
2023-05-07T10:12:10.291Z,14480.00
2023-05-07T10:13:10.421Z,14832.00
2023-05-07T10:14:10.255Z,14692.00
2023-05-07T10:15:10.582Z,14224.00
2023-05-07T10:16:10.244Z,14512.00
2023-05-07T10:17:10.321Z,14700.00
2023-05-07T10:18:10.358Z,14764.00
2023-05-07T10:19:10.226Z,14860.00
2023-05-07T10:20:10.231Z,14900.00
2023-05-07T10:21:10.209Z,14812.00
2023-05-07T10:22:10.250Z,14748.00
2023-05-07T10:23:10.182Z,14408.00
2023-05-07T10:24:10.180Z,13928.00
2023-05-07T10:25:10.544Z,13752.00
2023-05-07T10:26:10.161Z,13836.00
2023-05-07T10:27:10.164Z,13856.00
2023-05-07T10:28:10.204Z,13700.00
2023-05-07T10:29:10.161Z,13580.00
2023-05-07T10:30:10.167Z,13492.00
2023-05-07T10:31:10.151Z,13352.00
2023-05-07T10:32:10.148Z,13104.00
2023-05-07T10:33:10.244Z,12856.00
2023-05-07T10:34:10.156Z,13064.00
2023-05-07T10:35:10.248Z,13036.00
2023-05-07T10:36:10.084Z,12968.00
2023-05-07T10:37:10.080Z,12980.00
2023-05-07T10:38:10.074Z,12912.00
2023-05-07T10:39:10.086Z,12852.00
2023-05-07T10:40:10.071Z,12796.00
2023-05-07T10:41:10.101Z,12728.00
2023-05-07T10:42:10.051Z,12676.00
2023-05-07T10:43:11.152Z,12336.00
2023-05-07T10:44:11.050Z,12580.00
2023-05-07T10:45:10.101Z,12660.00
2023-05-07T10:46:10.088Z,12588.00
2023-05-07T10:47:10.000Z,12628.00
2023-05-07T10:48:25.075Z,12780.00
2023-05-07T10:49:11.985Z,13000.00
2023-05-07T10:50:10.000Z,12932.00
2023-05-07T10:51:09.971Z,13064.00
2023-05-07T10:52:09.970Z,13148.00
2023-05-07T10:53:09.999Z,13224.00
2023-05-07T10:54:09.946Z,13252.00
2023-05-07T10:55:10.099Z,13316.00
2023-05-07T10:56:09.931Z,13024.00
2023-05-07T10:57:09.940Z,13340.00
2023-05-07T10:58:14.512Z,13132.00
2023-05-07T10:59:11.903Z,12884.00
2023-05-07T11:00:09.901Z,12712.00
2023-05-07T11:01:10.030Z,12708.00
2023-05-07T11:02:09.945Z,13084.00
2023-05-07T11:03:09.915Z,13000.00
2023-05-07T11:04:09.875Z,13232.00
2023-05-07T11:05:10.125Z,13248.00
2023-05-07T11:06:09.856Z,13236.00
2023-05-07T11:07:09.880Z,13144.00
2023-05-07T11:08:09.827Z,13208.00
2023-05-07T11:09:09.833Z,13388.00
2023-05-07T11:10:09.816Z,13752.00
2023-05-07T11:11:09.829Z,13800.00
2023-05-07T11:12:09.830Z,13832.00
2023-05-07T11:13:09.811Z,13700.00
2023-05-07T11:14:09.780Z,13564.00
2023-05-07T11:15:09.900Z,13512.00
2023-05-07T11:16:09.815Z,13436.00
2023-05-07T11:17:09.859Z,13316.00
2023-05-07T11:18:09.785Z,13288.00
2023-05-07T11:19:09.745Z,13372.00
2023-05-07T11:20:09.753Z,13572.00
2023-05-07T11:21:09.751Z,13620.00
2023-05-07T11:22:09.969Z,13728.00
2023-05-07T11:23:09.717Z,13840.00
2023-05-07T11:24:09.737Z,13944.00
2023-05-07T11:25:09.990Z,13776.00
2023-05-07T11:26:09.755Z,13680.00
2023-05-07T11:27:09.697Z,13580.00
2023-05-07T11:28:09.687Z,13488.00
2023-05-07T11:29:09.672Z,13380.00
2023-05-07T11:30:09.685Z,13340.00
2023-05-07T11:31:09.718Z,13368.00
2023-05-07T11:32:09.761Z,13332.00
2023-05-07T11:33:09.729Z,13376.00
2023-05-07T11:34:09.624Z,13448.00
2023-05-07T11:35:09.672Z,13464.00
2023-05-07T11:36:09.615Z,13448.00
2023-05-07T11:37:09.613Z,13408.00
2023-05-07T11:38:09.602Z,13348.00
2023-05-07T11:39:09.590Z,13188.00
2023-05-07T11:40:09.602Z,12940.00
2023-05-07T11:41:09.577Z,12752.00
2023-05-07T11:42:09.566Z,12336.00
2023-05-07T11:43:09.553Z,12120.00
2023-05-07T11:44:09.549Z,11988.00
2023-05-07T11:45:09.696Z,12008.00
2023-05-07T11:46:09.561Z,11788.00
2023-05-07T11:47:09.528Z,11732.00
2023-05-07T11:48:09.529Z,11736.00
2023-05-07T11:49:09.547Z,11740.00
2023-05-07T11:50:09.550Z,11700.00
2023-05-07T11:51:09.490Z,11640.00
2023-05-07T11:52:09.505Z,11692.00
2023-05-07T11:53:09.482Z,11760.00
2023-05-07T11:54:09.495Z,11820.00
2023-05-07T11:55:09.631Z,11868.00
2023-05-07T11:56:09.459Z,11936.00
2023-05-07T11:57:09.449Z,11940.00
2023-05-07T11:58:10.833Z,12076.00
2023-05-07T11:59:10.461Z,12484.00
2023-05-07T12:00:09.417Z,12284.00
2023-05-07T12:01:09.419Z,12360.00
2023-05-07T12:02:09.521Z,12108.00
2023-05-07T12:03:09.607Z,12232.00
2023-05-07T12:04:09.608Z,12016.00
2023-05-07T12:05:09.565Z,11784.00
2023-05-07T12:06:09.375Z,11668.00
2023-05-07T12:07:09.368Z,11764.00
2023-05-07T12:08:09.383Z,11908.00
2023-05-07T12:09:09.348Z,12088.00
2023-05-07T12:10:09.437Z,12528.00
2023-05-07T12:11:09.346Z,12908.00
2023-05-07T12:12:09.352Z,13168.00
2023-05-07T12:13:09.378Z,13576.00
2023-05-07T12:14:12.060Z,13048.00
2023-05-07T12:15:10.519Z,13100.00
2023-05-07T12:16:09.299Z,14304.00
2023-05-07T12:17:09.349Z,14376.00
2023-05-07T12:18:09.365Z,14192.00
2023-05-07T12:19:09.287Z,13472.00
2023-05-07T12:20:09.353Z,13320.00